Time;durP1;ratioP1;P1;durP2;ratioP2;P2;SDS_P1;SDS_P2;PMS_P1;PMS_P2;Temp;Humidity;BMP_temperature;BMP_pressure;BME280_temperature;BME280_humidity;BME280_pressure;Samples;Min_cycle;Max_cycle;Signal;HPM_P1;HPM_P2
2023/09/08 00:01:12;;;;;;;8.57;6.88;;;;;;;17.84;93.45;101244.81;5010321;28;20795;-64
2023/09/08 00:03:37;;;;;;;10.52;6.13;;;;;;;17.79;93.74;101236.22;5014336;28;20079;-64
2023/09/08 00:06:04;;;;;;;7.18;5.97;;;;;;;17.77;93.54;101242.41;5016259;28;20029;-64
2023/09/08 00:08:30;;;;;;;12.43;6.47;;;;;;;17.72;93.81;101236.47;5017733;28;20045;-59
2023/09/08 00:10:56;;;;;;;8.98;5.95;;;;;;;17.67;93.76;101243.56;5013329;28;20406;-58
2023/09/08 00:13:21;;;;;;;7.38;6.10;;;;;;;17.62;93.71;101233.28;5015386;28;20034;-58
2023/09/08 00:15:46;;;;;;;8.93;6.38;;;;;;;17.61;93.70;101233.28;5011084;28;20117;-58
2023/09/08 00:18:11;;;;;;;9.50;5.95;;;;;;;17.60;93.56;101237.66;5011894;28;20074;-58
2023/09/08 00:20:37;;;;;;;9.30;5.82;;;;;;;17.54;93.65;101226.56;5018438;28;20065;-59
2023/09/08 00:23:02;;;;;;;8.35;6.15;;;;;;;17.49;93.87;101229.28;5018627;28;20037;-59
2023/09/08 00:25:28;;;;;;;7.28;6.07;;;;;;;17.44;93.83;101225.97;5019000;28;20033;-58
2023/09/08 00:27:53;;;;;;;5.90;5.28;;;;;;;17.41;93.51;101232.16;5015347;28;20044;-58
2023/09/08 00:30:18;;;;;;;8.50;6.05;;;;;;;17.40;93.68;101232.16;5012905;28;20068;-59
2023/09/08 00:32:44;;;;;;;10.57;6.32;;;;;;;17.41;93.68;101215.59;5011562;28;20044;-58
2023/09/08 00:35:11;;;;;;;7.70;5.85;;;;;;;17.40;93.74;101219.97;5015536;28;20140;-58
2023/09/08 00:37:37;;;;;;;9.50;5.90;;;;;;;17.39;93.74;101223.47;5008510;28;20089;-58
2023/09/08 00:40:02;;;;;;;9.35;6.20;;;;;;;17.37;93.69;101227.03;5008576;28;20707;-58
2023/09/08 00:42:28;;;;;;;9.23;6.85;;;;;;;17.33;93.84;101228.88;5016920;28;20038;-59
2023/09/08 00:44:53;;;;;;;7.10;5.80;;;;;;;17.28;93.86;101233.38;5011442;28;20065;-58
2023/09/08 00:47:18;;;;;;;9.43;6.75;;;;;;;17.27;93.98;101229.06;5014879;28;20049;-59
2023/09/08 00:49:44;;;;;;;8.63;6.13;;;;;;;17.25;93.64;101230.00;5002757;28;20049;-58
2023/09/08 00:52:09;;;;;;;7.25;6.38;;;;;;;17.23;93.67;101234.41;5006008;28;20627;-58
2023/09/08 00:54:35;;;;;;;7.32;5.55;;;;;;;17.19;93.59;101233.63;5011223;28;20037;-58
2023/09/08 00:57:03;;;;;;;7.60;6.20;;;;;;;17.17;93.85;101232.84;5003794;28;20535;-58
2023/09/08 00:59:31;;;;;;;6.57;5.57;;;;;;;17.17;94.03;101234.59;5013132;28;20068;-58
2023/09/08 01:01:56;;;;;;;6.25;5.45;;;;;;;17.16;93.91;101228.50;5010082;28;20061;-58
2023/09/08 01:04:21;;;;;;;9.30;5.70;;;;;;;17.15;94.04;101233.78;5012679;28;20849;-58
2023/09/08 01:06:47;;;;;;;6.63;5.90;;;;;;;17.13;94.05;101231.19;5011780;28;20048;-58
2023/09/08 01:09:13;;;;;;;14.80;6.22;;;;;;;17.09;94.38;101232.19;5018508;28;20036;-58
2023/09/08 01:11:39;;;;;;;7.53;6.28;;;;;;;17.05;94.51;101233.16;5013817;28;20113;-58
2023/09/08 01:14:04;;;;;;;9.48;5.82;;;;;;;17.02;94.75;101230.66;5013821;28;20418;-59
2023/09/08 01:16:30;;;;;;;8.02;6.03;;;;;;;17.01;94.64;101238.53;5011021;28;20095;-58
2023/09/08 01:18:56;;;;;;;9.90;6.50;;;;;;;16.98;95.27;101238.63;5012250;28;20041;-59
2023/09/08 01:21:53;;;;;;;8.90;6.38;;;;;;;16.95;95.39;101236.09;5020356;28;22570;-58
2023/09/08 01:24:31;;;;;;;9.50;6.85;;;;;;;16.88;95.66;101232.78;5016566;28;20050;-58
2023/09/08 01:26:57;;;;;;;10.70;6.97;;;;;;;16.75;97.17;101239.19;5011238;28;20224;-58
2023/09/08 01:29:24;;;;;;;10.15;7.38;;;;;;;16.63;97.75;101232.53;5016524;28;20492;-59
2023/09/08 01:31:50;;;;;;;10.60;7.05;;;;;;;16.54;98.49;101231.91;5016100;28;20049;-58
2023/09/08 01:34:16;;;;;;;8.98;6.85;;;;;;;16.51;98.66;101231.97;5019389;28;20048;-58
2023/09/08 01:36:42;;;;;;;8.70;6.75;;;;;;;16.50;98.52;101228.53;5016170;28;20030;-58
2023/09/08 01:39:07;;;;;;;9.68;7.10;;;;;;;16.49;99.17;101218.13;5016984;28;20065;-59
2023/09/08 01:41:32;;;;;;;13.27;8.40;;;;;;;16.53;100.00;101220.63;5022660;28;20120;-58
2023/09/08 01:43:59;;;;;;;10.43;7.85;;;;;;;16.54;100.00;101219.72;5011937;28;20129;-58
2023/09/08 01:46:24;;;;;;;9.63;8.23;;;;;;;16.53;100.00;101219.75;5014672;28;20045;-58
2023/09/08 01:48:50;;;;;;;10.88;8.45;;;;;;;16.60;100.00;101219.56;5013088;28;20041;-58
2023/09/08 01:51:15;;;;;;;11.93;9.48;;;;;;;16.64;100.00;101217.72;5018171;28;20030;-59
2023/09/08 01:53:40;;;;;;;11.57;8.82;;;;;;;16.66;100.00;101211.56;5012783;28;20033;-58
2023/09/08 01:56:06;;;;;;;12.52;8.88;;;;;;;16.66;100.00;101206.34;5013918;28;20041;-58
2023/09/08 01:58:33;;;;;;;12.45;8.77;;;;;;;16.63;100.00;101205.56;5013185;28;20743;-58
2023/09/08 02:01:05;;;;;;;10.82;8.30;;;;;;;16.60;100.00;101205.63;5015636;28;20041;-58
2023/09/08 02:03:30;;;;;;;12.93;8.70;;;;;;;16.59;100.00;101204.78;5024010;28;20079;-58
2023/09/08 02:05:56;;;;;;;12.82;8.88;;;;;;;16.62;100.00;101204.69;5021715;28;20017;-58
2023/09/08 02:08:21;;;;;;;10.23;8.20;;;;;;;16.64;100.00;101196.84;5020716;28;20723;-58
2023/09/08 02:10:46;;;;;;;15.30;8.32;;;;;;;16.61;100.00;101194.31;5017180;28;20083;-59
2023/09/08 02:13:12;;;;;;;9.77;8.10;;;;;;;16.57;100.00;101196.13;5011898;28;20069;-58
2023/09/08 02:15:37;;;;;;;11.95;8.65;;;;;;;16.58;100.00;101197.00;5020908;28;20021;-58
2023/09/08 02:18:03;;;;;;;11.10;7.97;;;;;;;16.58;100.00;101197.88;5012920;28;20041;-58
2023/09/08 02:20:31;;;;;;;9.48;8.20;;;;;;;16.58;100.00;101202.22;5014540;28;20042;-58
2023/09/08 02:22:57;;;;;;;10.45;7.97;;;;;;;16.59;100.00;101194.34;5009827;28;20149;-58
2023/09/08 02:25:24;;;;;;;11.38;7.68;;;;;;;16.56;100.00;101191.81;5016498;28;20045;-58
2023/09/08 02:27:49;;;;;;;12.10;8.50;;;;;;;16.54;100.00;101191.00;5014723;28;20057;-58
2023/09/08 02:30:15;;;;;;;10.45;8.23;;;;;;;16.55;100.00;101195.34;5018314;28;20110;-58
2023/09/08 02:32:43;;;;;;;11.77;8.25;;;;;;;16.57;100.00;101195.28;5005977;28;20514;-58
2023/09/08 02:35:08;;;;;;;12.05;9.07;;;;;;;16.59;100.00;101194.34;5013184;28;20034;-58
2023/09/08 02:37:34;;;;;;;11.90;9.18;;;;;;;16.60;100.00;101190.84;5013450;28;20037;-58
2023/09/08 02:39:59;;;;;;;12.43;9.00;;;;;;;16.65;100.00;101199.41;5020143;28;20053;-58
2023/09/08 02:42:24;;;;;;;10.90;8.05;;;;;;;16.65;100.00;101196.78;5012524;28;20132;-58
2023/09/08 02:44:50;;;;;;;12.15;8.20;;;;;;;16.63;100.00;101198.59;5014574;28;20854;-58
2023/09/08 02:47:15;;;;;;;10.57;7.90;;;;;;;16.59;100.00;101194.34;5014539;28;20044;-58
2023/09/08 02:49:40;;;;;;;12.75;9.40;;;;;;;16.56;100.00;101193.59;5016156;28;20034;-58
2023/09/08 02:52:05;;;;;;;11.90;9.05;;;;;;;16.54;100.00;101201.44;5018245;28;20091;-58
2023/09/08 02:54:31;;;;;;;11.93;8.93;;;;;;;16.52;100.00;101200.63;5010470;28;20089;-58
2023/09/08 02:56:56;;;;;;;11.40;9.35;;;;;;;16.51;100.00;101203.25;5015551;28;20025;-58
2023/09/08 02:59:21;;;;;;;11.60;8.70;;;;;;;16.48;100.00;101205.94;5016804;28;20631;-58
2023/09/08 03:01:47;;;;;;;12.60;9.00;;;;;;;16.44;100.00;101199.97;5013265;28;20042;-59
2023/09/08 03:04:12;;;;;;;13.45;8.73;;;;;;;16.44;100.00;101196.50;5011882;28;20193;-58
2023/09/08 03:06:37;;;;;;;14.68;10.40;;;;;;;16.45;100.00;101191.25;5013230;28;20037;-59
2023/09/08 03:09:03;;;;;;;11.73;9.38;;;;;;;16.46;100.00;101198.19;5010833;28;20034;-58
2023/09/08 03:11:29;;;;;;;13.73;9.05;;;;;;;16.41;100.00;101192.22;5011564;28;20069;-58
2023/09/08 03:13:54;;;;;;;12.32;9.38;;;;;;;16.40;100.00;101194.88;5006146;28;20125;-59
2023/09/08 03:16:20;;;;;;;12.02;9.23;;;;;;;16.33;100.00;101196.75;5007593;28;20068;-58
2023/09/08 03:18:45;;;;;;;11.68;8.52;;;;;;;16.30;100.00;101195.09;5008280;28;20163;-61
2023/09/08 03:21:14;;;;;;;13.40;9.80;;;;;;;16.36;100.00;101195.81;5010587;28;20069;-61
2023/09/08 03:23:41;;;;;;;9.38;8.40;;;;;;;16.39;100.00;101190.53;5010896;28;20037;-61
2023/09/08 03:26:08;;;;;;;9.38;8.38;;;;;;;16.41;100.00;101193.97;5011540;28;20445;-61
2023/09/08 03:28:34;;;;;;;12.40;9.02;;;;;;;16.41;100.00;101191.38;5009743;28;20041;-61
2023/09/08 03:31:03;;;;;;;13.25;8.93;;;;;;;16.38;100.00;101181.88;5007557;28;20037;-61
2023/09/08 03:33:29;;;;;;;12.68;8.60;;;;;;;16.35;100.00;101191.53;5012846;28;20120;-61
2023/09/08 03:35:55;;;;;;;9.88;8.50;;;;;;;16.30;100.00;101184.66;5014219;28;20044;-62
2023/09/08 03:38:21;;;;;;;10.27;8.68;;;;;;;16.26;100.00;101190.00;5005373;28;20047;-61
2023/09/08 03:40:46;;;;;;;15.75;9.40;;;;;;;16.22;100.00;101191.81;5014591;28;20034;-61
2023/09/08 03:43:11;;;;;;;10.57;7.97;;;;;;;16.18;100.00;101190.19;5013912;28;20038;-61
2023/09/08 03:45:37;;;;;;;8.70;7.80;;;;;;;16.16;100.00;101188.50;5014265;28;20073;-62
2023/09/08 03:48:02;;;;;;;14.15;8.02;;;;;;;16.14;100.00;101188.56;5014761;28;20057;-62
2023/09/08 03:50:28;;;;;;;12.25;8.88;;;;;;;16.17;100.00;101185.00;5017723;28;20091;-62
2023/09/08 03:52:53;;;;;;;10.90;8.15;;;;;;;16.15;100.00;101182.44;5016432;28;20052;-61
2023/09/08 03:55:19;;;;;;;11.75;8.57;;;;;;;16.16;100.00;101178.06;5016271;28;20038;-61
2023/09/08 03:57:44;;;;;;;11.20;7.90;;;;;;;16.14;100.00;101179.88;5014936;28;20037;-61
2023/09/08 04:00:10;;;;;;;9.05;7.55;;;;;;;16.12;100.00;101184.25;5008949;28;20063;-62
2023/09/08 04:02:36;;;;;;;10.05;6.88;;;;;;;16.10;100.00;101191.25;5018365;28;20045;-61
2023/09/08 04:05:02;;;;;;;9.15;7.55;;;;;;;16.08;100.00;101193.06;5014410;28;20040;-59
2023/09/08 04:07:27;;;;;;;9.38;6.97;;;;;;;16.06;100.00;101197.44;5020607;28;20033;-58
2023/09/08 04:09:53;;;;;;;8.43;6.97;;;;;;;16.03;100.00;101200.09;5016958;28;20720;-59
2023/09/08 04:12:18;;;;;;;9.55;7.35;;;;;;;16.01;100.00;101194.94;5019222;28;20058;-59
2023/09/08 04:14:43;;;;;;;9.00;7.15;;;;;;;16.00;100.00;101195.00;5013971;28;20041;-58
2023/09/08 04:17:09;;;;;;;11.88;8.30;;;;;;;16.00;100.00;101185.41;5019867;28;20044;-59
2023/09/08 04:19:34;;;;;;;8.43;7.30;;;;;;;16.01;100.00;101194.94;5010310;28;20041;-59
2023/09/08 04:21:59;;;;;;;14.23;7.75;;;;;;;16.03;99.75;101181.84;5017335;28;20647;-59
2023/09/08 04:24:25;;;;;;;11.48;7.53;;;;;;;16.04;99.96;101196.63;5015866;28;20509;-59
2023/09/08 04:26:50;;;;;;;10.32;7.35;;;;;;;16.07;99.42;101196.53;5016706;28;20075;-59
2023/09/08 04:29:15;;;;;;;11.88;7.82;;;;;;;16.10;98.77;101192.13;5013605;28;20049;-58
2023/09/08 04:31:41;;;;;;;11.57;7.60;;;;;;;16.09;98.37;101192.13;5016376;28;20805;-59
2023/09/08 04:34:06;;;;;;;12.15;7.05;;;;;;;16.05;97.85;101201.81;5015863;28;20045;-59
2023/09/08 04:36:31;;;;;;;11.13;7.60;;;;;;;16.01;97.94;101197.56;5016726;28;20044;-59
2023/09/08 04:38:57;;;;;;;11.90;7.60;;;;;;;15.98;98.59;101194.16;5008168;28;20030;-59
2023/09/08 04:41:22;;;;;;;11.05;7.80;;;;;;;15.98;98.07;101187.19;5015676;28;20054;-59
2023/09/08 04:43:47;;;;;;;11.52;7.40;;;;;;;15.98;97.96;101189.81;5011428;28;20506;-59
2023/09/08 04:46:13;;;;;;;12.68;7.80;;;;;;;15.98;98.03;101188.94;5011251;28;20034;-59
2023/09/08 04:48:38;;;;;;;10.00;7.57;;;;;;;16.00;98.35;101195.81;5008142;28;20025;-60
2023/09/08 04:51:03;;;;;;;8.60;6.90;;;;;;;15.97;98.63;101189.84;5015887;28;20033;-59
2023/09/08 04:53:29;;;;;;;11.00;6.45;;;;;;;15.95;98.41;101192.47;5014001;28;20091;-59
2023/09/08 04:55:54;;;;;;;10.63;7.65;;;;;;;15.95;98.69;101196.84;5014575;28;20448;-59
2023/09/08 04:58:19;;;;;;;11.93;7.72;;;;;;;15.97;98.54;101195.06;4994920;28;20068;-59
2023/09/08 05:00:45;;;;;;;9.93;7.50;;;;;;;15.98;98.14;101195.03;5010137;28;20063;-67
2023/09/08 05:03:10;;;;;;;12.60;7.45;;;;;;;16.01;97.59;101199.31;5013704;28;20821;-65
2023/09/08 05:05:36;;;;;;;10.43;8.07;;;;;;;16.00;97.33;101197.59;5015966;28;20048;-65
2023/09/08 05:08:02;;;;;;;11.50;7.60;;;;;;;16.02;97.25;101191.47;5012587;28;20136;-64
2023/09/08 05:10:27;;;;;;;11.65;7.25;;;;;;;16.04;96.86;101194.00;5010227;28;20125;-64
2023/09/08 05:12:52;;;;;;;8.82;7.05;;;;;;;16.04;96.61;101199.22;5011508;28;20065;-64
2023/09/08 05:15:20;;;;;;;12.35;7.28;;;;;;;16.07;96.42;101197.41;5017725;28;20048;-65
2023/09/08 05:17:46;;;;;;;10.70;6.60;;;;;;;16.10;95.84;101199.94;5018769;28;20398;-62
2023/09/08 05:20:12;;;;;;;11.82;7.68;;;;;;;16.12;96.00;101189.47;5010531;28;20041;-61
2023/09/08 05:22:37;;;;;;;10.02;7.07;;;;;;;16.13;95.66;101194.66;5013071;28;20056;-62
2023/09/08 05:25:03;;;;;;;10.25;6.53;;;;;;;16.17;95.33;101196.31;5007854;28;20033;-62
2023/09/08 05:27:28;;;;;;;9.85;6.80;;;;;;;16.19;95.40;101194.50;5007484;28;20498;-62
2023/09/08 05:29:54;;;;;;;10.35;7.47;;;;;;;16.24;95.21;101189.16;5016430;28;20049;-63
2023/09/08 05:32:19;;;;;;;10.77;7.45;;;;;;;16.27;94.68;101192.56;5010535;28;20059;-62
2023/09/08 05:34:45;;;;;;;9.05;7.03;;;;;;;16.29;95.12;101195.16;5010369;28;20037;-62
2023/09/08 05:37:10;;;;;;;10.30;7.28;;;;;;;16.30;94.86;101196.84;5016766;28;20049;-62
2023/09/08 05:39:36;;;;;;;10.25;6.72;;;;;;;16.31;94.95;101194.22;5015519;28;20033;-62
2023/09/08 05:42:01;;;;;;;8.88;6.90;;;;;;;16.32;94.90;101195.06;5001408;28;20041;-62
2023/09/08 05:44:26;;;;;;;10.13;6.82;;;;;;;16.35;95.02;101201.97;5007715;28;20049;-63
2023/09/08 05:46:52;;;;;;;7.70;6.18;;;;;;;16.35;94.96;101197.59;5008300;28;20092;-62
2023/09/08 05:49:17;;;;;;;10.20;7.22;;;;;;;16.39;95.18;101198.34;5006842;28;20042;-62
2023/09/08 05:51:56;;;;;;;8.52;6.70;;;;;;;16.44;95.13;101207.81;5039747;28;20435;-61
2023/09/08 05:54:22;;;;;;;8.75;6.75;;;;;;;16.47;95.04;101212.94;5004762;28;20038;-61
2023/09/08 05:56:47;;;;;;;10.35;6.75;;;;;;;16.53;94.65;101207.56;4997754;28;20049;-60
2023/09/08 05:59:13;;;;;;;12.65;7.63;;;;;;;16.62;94.38;101209.09;4997130;28;20448;-61
2023/09/08 06:01:38;;;;;;;8.75;6.80;;;;;;;16.71;93.96;101206.25;4993990;28;20049;-60
2023/09/08 06:04:03;;;;;;;11.10;7.35;;;;;;;16.76;93.94;101207.81;5001577;28;20645;-61
2023/09/08 06:06:29;;;;;;;15.15;6.95;;;;;;;16.90;93.85;101214.44;4999106;28;20045;-60
2023/09/08 06:08:54;;;;;;;10.38;6.80;;;;;;;17.01;92.97;101215.03;5015514;28;20112;-61
2023/09/08 06:11:20;;;;;;;12.73;6.63;;;;;;;17.14;92.30;101213.78;5000426;28;20121;-60
2023/09/08 06:13:45;;;;;;;14.50;7.57;;;;;;;17.22;92.19;101206.56;4992798;28;20046;-61
2023/09/08 06:16:11;;;;;;;10.57;7.32;;;;;;;17.34;91.43;101211.44;4979971;28;20153;-61
2023/09/08 06:18:39;;;;;;;10.50;6.70;;;;;;;17.44;91.11;101210.28;4993474;28;20229;-60
2023/09/08 06:21:08;;;;;;;13.95;7.10;;;;;;;17.50;90.88;101211.84;4993529;28;20053;-61
2023/09/08 06:23:34;;;;;;;10.98;7.45;;;;;;;17.58;90.73;101207.25;5012203;28;20038;-61
2023/09/08 06:26:00;;;;;;;11.05;7.65;;;;;;;17.59;90.90;101209.84;5017881;28;20049;-62
2023/09/08 06:28:27;;;;;;;10.13;6.80;;;;;;;17.64;90.89;101212.28;5009064;28;20551;-61
2023/09/08 06:30:56;;;;;;;10.73;7.45;;;;;;;17.70;90.51;101205.13;4994753;28;20040;-61
2023/09/08 06:33:22;;;;;;;10.15;6.75;;;;;;;17.77;90.44;101211.03;4993574;28;20034;-62
2023/09/08 06:35:47;;;;;;;9.35;6.45;;;;;;;17.81;90.14;101207.44;4991303;28;20045;-62
2023/09/08 06:38:13;;;;;;;8.48;6.00;;;;;;;17.87;89.82;101210.72;4994425;28;20069;-62
2023/09/08 06:40:39;;;;;;;12.38;6.00;;;;;;;17.91;89.58;101207.13;4993708;28;20133;-62
2023/09/08 06:43:04;;;;;;;10.13;7.43;;;;;;;18.04;89.48;101218.06;4996240;28;20037;-62
2023/09/08 06:45:29;;;;;;;10.07;6.53;;;;;;;18.10;89.66;101211.75;5006833;28;20041;-61
2023/09/08 06:47:55;;;;;;;12.05;6.53;;;;;;;18.20;89.68;101210.53;5013021;28;20117;-62
2023/09/08 06:50:23;;;;;;;11.05;7.03;;;;;;;18.37;88.97;101206.47;5014174;28;20096;-62
2023/09/08 06:52:50;;;;;;;8.32;6.18;;;;;;;18.55;88.21;101204.16;5002291;28;20141;-62
2023/09/08 06:55:16;;;;;;;8.80;6.57;;;;;;;18.62;87.95;101203.88;4995874;28;20439;-62
2023/09/08 06:57:42;;;;;;;10.95;5.75;;;;;;;18.83;86.48;101207.50;4992318;28;20117;-62
2023/09/08 07:00:08;;;;;;;9.30;5.85;;;;;;;18.90;86.38;101201.19;4993756;28;20037;-62
2023/09/08 07:02:34;;;;;;;13.18;6.45;;;;;;;19.10;84.74;101198.72;4981833;28;20050;-61
2023/09/08 07:04:59;;;;;;;8.88;6.28;;;;;;;19.18;84.55;101196.66;4981712;28;20519;-62
2023/09/08 07:07:25;;;;;;;9.70;6.05;;;;;;;19.19;85.57;101189.66;4980995;28;20038;-62
2023/09/08 07:09:50;;;;;;;9.02;5.95;;;;;;;19.41;83.62;101185.34;4979184;28;20099;-62
2023/09/08 07:12:15;;;;;;;10.15;6.05;;;;;;;19.55;83.97;101190.91;4995382;28;20562;-62
2023/09/08 07:14:41;;;;;;;9.55;5.72;;;;;;;19.75;81.45;101180.47;4990749;28;20446;-62
2023/09/08 07:17:06;;;;;;;10.68;6.10;;;;;;;19.84;80.99;101179.28;5001747;28;20052;-62
2023/09/08 07:19:31;;;;;;;8.45;5.93;;;;;;;19.90;81.14;101184.28;4997983;28;20133;-62
2023/09/08 07:21:57;;;;;;;8.65;5.50;;;;;;;19.94;81.47;101199.00;5003040;28;20033;-62
2023/09/08 07:24:22;;;;;;;7.82;5.38;;;;;;;20.03;80.26;101177.66;4997400;28;20063;-63
2023/09/08 07:26:48;;;;;;;12.63;6.05;;;;;;;20.17;79.88;101167.44;5001593;28;20489;-59
2023/09/08 07:29:13;;;;;;;10.52;5.32;;;;;;;20.30;79.06;101166.00;4995311;28;20323;-59
2023/09/08 07:31:39;;;;;;;10.13;5.75;;;;;;;20.33;79.29;101178.16;5002738;28;20042;-59
2023/09/08 07:34:04;;;;;;;8.15;5.43;;;;;;;20.48;78.07;101172.25;5000824;28;20046;-59
2023/09/08 07:36:30;;;;;;;7.47;4.85;;;;;;;20.56;77.55;101167.50;4998928;28;20530;-59
2023/09/08 07:38:55;;;;;;;10.27;5.32;;;;;;;20.68;75.93;101167.84;4978005;28;20034;-59
2023/09/08 07:41:20;;;;;;;9.68;5.55;;;;;;;20.83;75.16;101153.22;4996746;28;20423;-59
2023/09/08 07:43:45;;;;;;;8.15;5.65;;;;;;;20.91;74.84;101161.59;4993805;28;20740;-60
2023/09/08 07:46:11;;;;;;;6.82;5.10;;;;;;;21.01;74.14;101151.53;4997268;28;20037;-59
2023/09/08 07:48:36;;;;;;;9.75;5.07;;;;;;;21.16;73.64;101159.59;5001809;28;20026;-60
2023/09/08 07:51:02;;;;;;;9.00;5.38;;;;;;;21.12;74.31;101167.66;4999592;28;20037;-59
2023/09/08 07:53:27;;;;;;;8.00;4.90;;;;;;;21.26;72.91;101150.34;4999505;28;20132;-59
2023/09/08 07:55:53;;;;;;;6.63;5.00;;;;;;;21.38;72.66;101154.16;5002385;28;20033;-59
2023/09/08 07:58:18;;;;;;;8.35;4.97;;;;;;;21.43;71.68;101148.72;5001257;28;20221;-59
2023/09/08 08:00:44;;;;;;;5.60;4.50;;;;;;;21.48;72.05;101158.09;5004089;28;20079;-59
2023/09/08 08:03:09;;;;;;;10.07;5.38;;;;;;;21.75;70.53;101140.16;5000006;28;20053;-59
2023/09/08 08:05:34;;;;;;;6.65;4.85;;;;;;;21.86;69.58;101129.97;4999545;28;20925;-59
2023/09/08 08:08:00;;;;;;;7.25;4.60;;;;;;;21.95;69.75;101126.00;4998377;28;20049;-60
2023/09/08 08:10:26;;;;;;;5.45;4.18;;;;;;;22.10;68.96;101125.25;4998807;28;20077;-58
2023/09/08 08:12:51;;;;;;;7.68;4.57;;;;;;;22.16;68.34;101120.53;5005032;28;20065;-59
2023/09/08 08:15:21;;;;;;;6.00;4.22;;;;;;;22.31;67.77;101117.13;4995783;28;20401;-59
2023/09/08 08:17:46;;;;;;;7.53;5.15;;;;;;;22.41;67.35;101114.06;4992955;28;20046;-58
2023/09/08 08:20:17;;;;;;;6.32;4.57;;;;;;;22.49;66.93;101114.50;4987829;28;20049;-59
2023/09/08 08:22:46;;;;;;;6.68;4.60;;;;;;;22.53;67.14;101130.06;4972537;28;20045;-58
2023/09/08 08:25:12;;;;;;;7.78;5.00;;;;;;;22.64;67.49;101118.97;4977462;28;20030;-58
2023/09/08 08:27:39;;;;;;;7.07;4.57;;;;;;;22.74;66.60;101107.84;4990183;28;20685;-58
2023/09/08 08:30:05;;;;;;;8.80;4.63;;;;;;;22.77;67.63;101136.69;4982496;28;20037;-58
2023/09/08 08:32:30;;;;;;;7.03;4.05;;;;;;;22.92;66.10;101099.91;4977260;28;20069;-58
2023/09/08 08:34:56;;;;;;;7.95;4.78;;;;;;;23.11;64.59;101085.63;4974904;28;20133;-58
2023/09/08 08:37:22;;;;;;;7.38;5.10;;;;;;;23.20;65.30;101103.63;4978277;28;20042;-58
2023/09/08 08:39:47;;;;;;;6.30;4.07;;;;;;;23.21;65.49;101105.34;4974274;28;20057;-58
2023/09/08 08:42:14;;;;;;;6.25;4.18;;;;;;;23.50;62.68;101065.91;4979379;28;20535;-58
2023/09/08 08:44:40;;;;;;;6.90;4.40;;;;;;;23.55;63.39;101067.34;4972116;28;20042;-58
2023/09/08 08:47:10;;;;;;;7.95;4.35;;;;;;;23.60;63.91;101075.00;4976610;28;20043;-58
2023/09/08 08:49:36;;;;;;;8.07;5.03;;;;;;;23.60;63.11;101075.00;4975259;28;20058;-58
2023/09/08 08:52:06;;;;;;;7.55;4.43;;;;;;;23.72;63.55;101082.22;4977894;28;20567;-58
2023/09/08 08:54:35;;;;;;;6.38;4.22;;;;;;;23.81;62.71;101063.19;4970438;28;20035;-58
2023/09/08 08:57:01;;;;;;;7.55;3.85;;;;;;;23.87;62.26;101073.41;5003526;28;20607;-58
2023/09/08 08:59:27;;;;;;;6.72;4.30;;;;;;;24.11;60.19;101028.88;4998801;28;20103;-59
2023/09/08 09:01:54;;;;;;;7.05;4.90;;;;;;;24.07;61.74;101062.56;4986133;28;20034;-58
2023/09/08 09:04:20;;;;;;;8.05;4.75;;;;;;;24.18;59.67;101030.22;4976285;28;20361;-58
2023/09/08 09:06:46;;;;;;;10.05;4.50;;;;;;;24.26;60.48;101038.50;4977178;28;20054;-58
2023/09/08 09:09:11;;;;;;;6.75;4.25;;;;;;;24.31;60.66;101054.97;4974753;28;20034;-58
2023/09/08 09:11:37;;;;;;;6.40;4.05;;;;;;;24.41;60.12;101043.72;4971993;28;20081;-58
2023/09/08 09:14:04;;;;;;;6.68;4.28;;;;;;;24.49;60.91;101062.59;4978652;28;20074;-58
2023/09/08 09:16:29;;;;;;;6.93;4.18;;;;;;;24.62;59.87;101035.41;4973908;28;20136;-58
2023/09/08 09:18:59;;;;;;;6.68;4.32;;;;;;;24.78;58.53;101020.34;4977392;28;20039;-59
2023/09/08 09:21:47;;;;;;;5.80;4.30;;;;;;;24.88;58.13;101021.44;4977418;28;20886;-59
2023/09/08 09:24:17;;;;;;;6.38;4.72;;;;;;;24.98;58.59;101030.50;4991062;28;20136;-59
2023/09/08 09:26:42;;;;;;;7.18;4.90;;;;;;;25.06;59.35;101050.22;4996016;28;20049;-59
2023/09/08 09:29:17;;;;;;;5.78;4.03;;;;;;;25.16;58.95;101047.84;4995341;28;20426;-59
2023/09/08 09:31:53;;;;;;;;;;;;;;;25.30;57.35;101005.44;4992132;28;20045;-58
2023/09/08 09:34:20;;;;;;;5.68;4.43;;;;;;;25.55;55.72;100992.34;4994831;28;19980;-59
2023/09/08 09:36:45;;;;;;;6.40;4.50;;;;;;;25.59;56.33;101014.13;4999063;28;20480;-59
2023/09/08 09:39:12;;;;;;;7.15;4.75;;;;;;;25.70;55.43;100998.41;4999209;28;20040;-59
2023/09/08 09:41:37;;;;;;;6.53;4.70;;;;;;;25.80;55.35;100990.69;4975898;28;20038;-59
2023/09/08 09:44:03;;;;;;;5.63;4.03;;;;;;;25.81;55.66;100995.88;4972743;28;20034;-58
2023/09/08 09:46:29;;;;;;;6.90;4.15;;;;;;;25.83;55.88;100998.44;4981863;28;20308;-59
2023/09/08 09:48:56;;;;;;;7.88;4.78;;;;;;;26.00;54.90;100995.47;4986481;28;20030;-59
2023/09/08 09:51:22;;;;;;;6.93;4.18;;;;;;;26.04;55.27;101002.22;4993688;28;20129;-59
2023/09/08 09:53:50;;;;;;;9.98;4.32;;;;;;;26.09;55.92;101005.44;4987180;28;20049;-59
2023/09/08 09:56:17;;;;;;;8.15;4.32;;;;;;;26.12;53.63;100979.59;4982976;28;20215;-59
2023/09/08 09:58:43;;;;;;;8.93;4.07;;;;;;;26.23;53.76;100985.94;4990837;28;20177;-58
2023/09/08 10:01:11;;;;;;;7.88;4.10;;;;;;;26.26;54.15;100994.53;4987947;28;20052;-61
2023/09/08 10:03:39;;;;;;;6.70;4.07;;;;;;;26.41;52.23;100959.00;4989515;28;20034;-61
2023/09/08 10:06:05;;;;;;;5.28;4.10;;;;;;;26.60;51.99;100958.56;4990288;28;20710;-61
2023/09/08 10:08:34;;;;;;;6.80;4.38;;;;;;;26.67;51.43;100947.38;4989514;28;20049;-61
2023/09/08 10:11:04;;;;;;;6.93;4.40;;;;;;;26.72;52.29;100962.94;4992795;28;20129;-61
2023/09/08 10:13:33;;;;;;;6.18;4.63;;;;;;;26.73;52.30;100969.97;4989698;28;20511;-60
2023/09/08 10:16:01;;;;;;;7.95;4.47;;;;;;;27.01;51.32;100951.13;4989606;28;20050;-61
2023/09/08 10:18:29;;;;;;;5.75;4.07;;;;;;;27.11;49.09;100917.63;4992351;28;20116;-61
2023/09/08 10:21:01;;;;;;;6.88;4.65;;;;;;;27.27;49.81;100931.44;4974324;28;20290;-61
2023/09/08 10:23:43;;;;;;;7.85;4.18;;;;;;;27.32;49.78;100947.00;4988194;28;20499;-61
2023/09/08 10:26:15;;;;;;;6.20;4.20;;;;;;;27.20;51.25;100972.66;4990631;28;20077;-61
2023/09/08 10:28:41;;;;;;;5.57;4.10;;;;;;;27.27;50.53;100955.34;4991195;28;20508;-61
2023/09/08 10:31:08;;;;;;;7.65;4.63;;;;;;;27.41;49.54;100946.31;4990347;28;20081;-60
2023/09/08 10:33:35;;;;;;;6.00;4.35;;;;;;;27.60;49.55;100940.50;4983535;28;20034;-62
2023/09/08 10:36:04;;;;;;;7.82;4.20;;;;;;;27.56;49.86;100950.50;4970717;28;20488;-62
2023/09/08 10:38:34;;;;;;;4.90;3.38;;;;;;;27.54;50.82;100960.41;4987207;28;20375;-61
2023/09/08 10:41:14;;;;;;;6.70;4.43;;;;;;;27.58;48.49;100927.31;4996804;28;20038;-61
2023/09/08 10:43:40;;;;;;;7.20;4.05;;;;;;;27.74;48.79;100916.38;4992383;28;20046;-61
2023/09/08 10:46:10;;;;;;;5.60;3.80;;;;;;;27.71;49.76;100944.03;4988674;28;20066;-65
2023/09/08 10:49:01;;;;;;;7.20;3.92;;;;;;;27.88;48.80;100925.97;4994942;28;20033;-64
2023/09/08 10:51:26;;;;;;;4.85;4.10;;;;;;;28.05;48.63;100928.13;4999801;28;20042;-65
2023/09/08 10:53:52;;;;;;;8.00;4.70;;;;;;;28.09;47.90;100911.84;5005774;28;20054;-65
2023/09/08 10:56:18;;;;;;;6.85;4.13;;;;;;;28.13;47.62;100920.44;4999148;28;20550;-65
2023/09/08 10:58:49;;;;;;;5.85;4.22;;;;;;;28.18;48.77;100931.53;4996203;28;20384;-65
2023/09/08 11:01:26;;;;;;;6.78;3.83;;;;;;;28.21;47.56;100915.34;4994799;28;20029;-66
2023/09/08 11:03:53;;;;;;;6.20;4.15;;;;;;;28.32;47.17;100916.19;4997529;28;20037;-65
2023/09/08 11:06:23;;;;;;;6.10;3.90;;;;;;;28.34;46.50;100906.28;4996290;28;20038;-65
2023/09/08 11:08:53;;;;;;;7.57;4.25;;;;;;;28.51;45.42;100869.50;4998221;28;20058;-66
2023/09/08 11:11:18;;;;;;;4.47;3.72;;;;;;;28.52;46.56;100903.13;5002427;28;20037;-65
2023/09/08 11:13:47;;;;;;;6.88;3.83;;;;;;;28.53;47.56;100918.13;4990936;28;20045;-66
2023/09/08 11:16:15;;;;;;;5.82;4.65;;;;;;;28.56;46.67;100899.25;4980439;28;20089;-61